BoredJedi's sites:

title views votes rating creation
?Lost Boy 0 2 (5.00)  2019-01-23
?New Years Resolution 2004 473 10 (4.40)  2018-12-31
?Full Spectrum 985 18 (3.72)  2018-09-19
?Odds & Ends 324 4 (3.50)  2018-04-28
?Jesus Has A Message For You All 256 4 (4.00)  2018-04-10
?Stephanie Writes Darkly 220 4 (3.00)  2018-04-01
?She Comes In Colors 206 3 (2.33)  2018-04-01
?Ultimate Major Robbie 238 4 (3.75)  2018-03-14
?The Hands Of Stephanie 275 9 (3.33)  2018-03-11
?Space Race 894 20 (3.80)  2018-02-11
?Prescription Required 157 5 (3.00)  2018-02-03
?Today I'm a Screever 157 4 (2.50)  2018-02-01
?No Place Like Home 194 5 (2.60)  2018-01-11
?R.I.P John Hurt 271 5 (2.40)  2017-01-27
?Bacta the future 288 5 (3.80)  2016-12-07
?To Ytmnd 575 6 (4.33)  2016-09-12
?Thank You Max 897 17 (4.41)  2016-09-01
?A New Hope 1,002 29 (4.69)  2016-07-27
?I Only Wanted Power Converters From Tosche St... 319 4 (4.00)  2016-06-04
?The Domino Effect 1,364 25 (4.40)  2016-04-24
?Poison Apple 590 7 (4.00)  2016-03-27
?BoredJedi Leaves YTMND 1,306 18 (4.44)  2016-03-17
?Join Forces 421 8 (3.38)  2016-02-17
?The Little Dictator 428 3 (3.67)  2016-01-28
?David Robert Jones 483 3 (3.67)  2016-01-11
?4th Dimension 1,567 16 (4.31)  2016-01-02
?End Of Times 1,744 27 (4.00)  2015-12-18
?Stephanie: Session 1 381 6 (3.00)  2015-11-11
?I'm Only Human 1,143 14 (4.29)  2015-10-16
?Wouldn't It Be Good 297 3 (3.33)  2015-09-17
?YTMND's Wayback Machine 1,821 25 (4.44)  2015-08-22
?It's Curtains For You 5,507 46 (4.52)  2015-08-07
?Steph on the Wing 642 15 (3.20)  2015-08-01
?Simply Stephanie 1,501 28 (3.68)  2015-05-10
? 1,681 37 (4.27)  2015-04-19
?You're The Shark Now Dog 1,962 33 (3.97)  2015-03-31
?2020 Vision 3,540 53 (4.47)  2015-03-28
?What Happens On Naboo Doesn't Stay On ... 5,179 42 (4.31)  2015-03-08
?By The Numbers 1,672 32 (4.25)  2015-03-01
?Black and White 1,363 24 (3.29)  2015-01-20
?YTwistMND 533 22 (3.18)  2014-12-10
?Edge Of Forever 1,390 38 (3.92)  2014-11-23
?Who are You Stephanie 1,220 25 (3.64)  2014-11-02
?Safety Dance Not Guaranteed 9,142 73 (4.51)  2014-10-15
?HYPNOTIC 3,023 51 (4.20)  2014-10-04
?Mysteries of the Steph: Birth of a Jedi 1,382 36 (3.81)  2014-09-04
?Mysteries Of The Steph 505 13 (2.77)  2014-07-28
?Blame Me! It's All My Vault! 1,520 37 (3.57)  2014-06-16
?Fallout Stephanie 5,048 61 (4.02)  2014-06-01
?Morbius Discovers 2,425 35 (3.80)  2014-05-25
?Talking Man To Man With Max About Bugs and Fe... 48,120 71 (3.80)  2014-04-12
?Stephysium 1,340 25 (3.44)  2014-04-03
?Doin' the Stephtusi 1,036 21 (3.38)  2014-03-23
?10th Anniversary 645 20 (3.60)  2013-12-01
?Apple Juice Concentrate 1,528 45 (4.00)  2013-11-28
?Cloudy With A Chance Of Stephanie 871 21 (2.90)  2013-09-08
?Eh Eh Eh Eh Eh Ah Ah Ah Ah Ah Na Na Na Na ... 2,597 47 (4.09)  2013-08-18
?Sines Of Stephanie 905 15 (3.67)  2013-06-23
?The Finger Of Stephanie 7,157 73 (4.08)  2013-05-27
?In The Fad Part 2 563 8 (3.38)  2013-04-25
?(nsfw) Timaeus Tribute 1,061 13 (3.62)  2013-04-07
?Stephanie Remembers The Last Day She Came 829 19 (3.89)  2013-04-02
?Moon Runes 1,784 52 (3.73)  2013-03-21
?Introducing The Stephs 1,305 30 (3.47)  2013-02-16
?You Are A Jedi 2,442 51 (3.86)  2012-11-11
?Stephanie Belongs Here 895 22 (3.05)  2012-11-04
?A Cyclone Appears 984 10 (3.50)  2012-10-28
?Stephanie Airhead™ 923 14 (3.43)  2012-10-27
?The Great Debate 2012 (ytmndam style) 7,538 117 (4.14)  2012-10-16
?Morpheus Finds The Truth 572 10 (3.20)  2012-08-25
?Feel Good Tuesdays 7,228 69 (3.86)  2012-07-17
?Bedtime Stories 802 10 (3.10)  2012-06-07
?Stephanie use to dance until....... 934 9 (3.00)  2011-12-31
?I Slooshied 10,170 75 (3.67)  2011-10-16
?Boredjedi and Stephanie 9,527 152 (4.06)  2011-10-02
?The King Is Dead 802 8 (2.13)  2011-08-20
?Ice Sculpture 1,231 16 (2.88)  2011-08-06
?Stephanie and the Firecat 1,196 10 (3.10)  2011-07-30
?Wheelchair Girl Chases Stephen Hawkings Chase... 1,035 10 (3.60)  2011-07-15
?Wheelchair Girl Chases Stephen Hawkings Chases... 777 10 (3.10)  2011-07-15
?I wanna be a Cheerleader 1,082 7 (3.00)  2011-07-14
?Ultimate Question of Life, the Universe and Everythi... 694 10 (2.70)  2011-07-12
?Invasion Birthday (punch the reload) 1,362 15 (3.53)  2011-07-11
?The First Girl On The Moon Man 2,973 56 (3.91)  2011-07-04
?Plate Tectonics 5,335 70 (4.13)  2011-06-25
?The Gods Are Baked 1,005 9 (3.44)  2011-06-22
?I Love Apples 2,477 10 (3.00)  2011-06-13
?To Old Friends Long Gone 2,382 50 (3.82)  2011-06-10
?Toss It Up 776 6 (3.67)  2011-03-27
?Server Crash Secrets Revealed 1,797 12 (3.67)  2011-03-13
?Where's Your AT-AT 1,920 21 (3.81)  2011-03-05
?Lou Diamond Almonds 924 11 (3.91)  2011-02-25
?A RAY OF LIGHT in a world gone mad 1,350 7 (3.14)  2010-11-25
?IN YOUR HEADS! 1,243 15 (3.60)  2010-11-13
?Good For One Admission 3,284 13 (4.00)  2010-11-08
?Pre surgical consent 3,333 10 (3.80)  2010-09-16
?Slap Happy 2,726 11 (4.00)  2010-09-01
?Do Androids Dream Electric Cake? 1,816 24 (3.88)  2010-08-06
?110 ºF11 1,718 41 (4.32)  2010-07-18
?At World's End 10,090 112 (4.07)  2010-07-05
?Tarot Cake 5,448 51 (4.02)  2010-06-17
?cluckTMND: Azn steph loves chicken 7,473 75 (4.03)  2010-05-30
?Stephanie 19 14,778 126 (4.08)  2010-05-26
?Farewell To Cake 10,202 196 (4.27)  2010-03-22
?Great Gasp In The Sky 1,500 21 (3.76)  2010-03-17
?Art Thou Face Palm 1,825 25 (3.64)  2010-03-15
?LV-426 924 10 (4.00)  2010-03-13
?Cake V 2,241 62 (3.87)  2010-03-11
?Decade Of Decadence 1,378 30 (4.07)  2010-01-02
?GOOD KNIGHT SWEET PRINCE 783 6 (3.00)  2009-12-30
?Not Even Lysol Can Save You 977 11 (3.27)  2009-11-21
?Extreme Radiation (Warning!) 2,291 41 (3.90)  2009-11-08
?Riker Skies (F11 edition) 6,211 129 (4.09)  2009-10-27
?In The Fad 13,180 326 (4.52)  2009-09-24
?Dawn Of Monotheism © 1,267 24 (3.92)  2009-09-16
?Ritual I'z 812 22 (4.09)  2009-09-12
?05h 35m 17.3s / 1,344±20 ly 876 20 (4.10)  2009-09-05
?I'll just put this here then 1,044 19 (3.95)  2009-09-04
?Worm Head 1,347 20 (4.10)  2009-09-03
?Worms ate into her brain 3,341 85 (3.96)  2009-08-30
?Renaissance Shenanigans 3,073 61 (3.97)  2009-08-26
?Bricks 5,712 165 (4.13)  2009-08-21
?Element 602 2,429 16 (3.81)  2009-06-09
?Oysters 1,000 20 (3.70)  2009-06-04
?The 18 Light Year Blues 3,184 36 (3.94)  2009-06-03
?18 light years ago 19,818 282 (4.25)  2009-05-25
?Mythology II 15,075 312 (4.46)  2009-05-21
?Mythology 10,454 244 (4.42)  2009-05-11
?Orange Surprise 2,702 66 (4.27)  2009-05-02
?Power of the Kraken! 571 9 (3.78)  2009-04-29
?yTEEmnd: LANDOGOTSNOBALLS 1,554 36 (4.11)  2009-04-15
?YTMND T-SHIRT ENTRY BY BOREDJEDI AGE 9... 784 20 (3.60)  2009-04-02
?YTMND T-SHIRT ENTRY BY BOREDJEDI AGE 9... 1,657 107 (3.68)  2009-03-31
?YTMND T-SHIRT ENTRY BY BOREDJEDI AGE 9... 2,054 58 (3.62)  2009-03-28
?A Figure In Black 2,004 31 (3.94)  2009-03-25
?Something Something Something (nothing) 691 19 (3.68)  2009-03-23
?HORSWARZ: Punch the Cabbage 3,204 125 (3.95)  2009-03-19
?White men can tongue dance 2,921 38 (3.89)  2009-03-15
?Cheesy Domain Stolen 2,906 20 (3.65)  2009-03-12
?Joys of Unicycle 2,866 37 (3.95)  2009-03-07
?Twenty Twelve: California 1,522 44 (3.84)  2009-02-26
?2012: Ominous Land Mass Discovered 818 9 (3.44)  2009-02-26
?Emulation Doesn't Work! 3,349 45 (4.02)  2009-02-24
?Luke is starving 1,738 69 (3.96)  2009-02-13
?Hey Lando! Whatchya got there!? 1,734 20 (3.95)  2009-02-12
?Super Cheetos 5,608 28 (3.89)  2009-02-10
?Phonograph Not Included 989 18 (4.00)  2009-02-07
?Fad Foods 1,655 39 (4.08)  2009-01-30
?Global Warming > Solitude 1,313 27 (3.81)  2009-01-25
?3 Feet Long (retacked) 2,838 28 (3.79)  2009-01-23
?3 Feet Long (reduct) 5,296 87 (3.86)  2009-01-21
?3 Feet Long 859 13 (3.15)  2009-01-21
?Dear Santa <3 3,221 17 (3.82)  2008-12-21
?Midnight Special 1,367 15 (3.47)  2008-11-23
?Pink isn't well she stayed back at the hotel 2,367 50 (3.82)  2008-11-14
?PASTMND: Way back in 2012 796 11 (3.45)  2008-11-06
?Universal Remote 3,263 80 (3.98)  2008-11-02
?Once In A Lullaby 3,712 22 (3.73)  2008-11-01
?Quantum Sleep 2,829 52 (3.87)  2008-10-22
?Between Friends 649 30 (3.40)  2008-10-17
?And to the Republic 880 19 (4.00)  2008-10-12
?National Debt (divide by zero economics) 1,440 17 (3.65)  2008-09-28
?The Empire Doesn't Stand a Chance 2,309 85 (3.79)  2008-09-08
?Fourteen nights a week 1,016 14 (3.43)  2008-09-03
?Stealing your gold 2,880 65 (3.85)  2008-08-21
?Death after ytmnd 3,985 173 (3.99)  2008-08-19
?Fad Chases Itself 3,072 27 (3.93)  2008-08-17
?Signed, Yours Truly 3,205 29 (4.03)  2008-08-16
?YTMND CORE BREACH 10,644 240 (4.21)  2008-08-12
?Thank You Thank You Thank You Thank You! 1,132 33 (4.00)  2008-08-09
?Sight, Cite, Site 301 10 (3.10)  2008-08-06
?Fire in the Hole 1,710 10 (3.30)  2008-08-01
?The best years of MoNeY-hAT (compressed for ti... 3,032 82 (4.06)  2008-07-30
?Insomniacs Guild Apply Within 1,703 52 (3.90)  2008-07-30
?Green Thumb 3,882 63 (3.90)  2008-07-29
?A StEpH By sTePh tUtOrIaL 1,477 14 (3.36)  2008-07-27
?LiL Wayne Steph by Steph 3,384 27 (4.22)  2008-07-26
?><(({°> ><(({°> ><(... 1,721 32 (3.81)  2008-07-19
?The past stares into your soul 1,300 20 (3.55)  2008-07-13
?Emily doesn't play here anymore 6,855 96 (4.04)  2008-07-09
?Immoral Minority 1,009 11 (3.82)  2008-07-02
?Lesson #10: The Feet 3,599 32 (4.06)  2008-06-15
?Saturday Night's Alright 462 8 (2.75)  2008-05-10
?Spin Cyles 745 15 (3.60)  2008-05-05
?²²²²²²²&... 2,641 130 (3.92)  2008-05-03
?Matter * (Space + Distance) = Stop Motion 682 8 (3.50)  2008-04-27
?HuminahuminahumImhotep 3,458 58 (3.86)  2008-04-24
?YTMNDruish 736 17 (3.65)  2008-04-22
?The Carbonite Maneuver 1,531 38 (3.71)  2008-04-20
?David Bowie stares into your soul 1,343 9 (3.33)  2008-04-19
?Pursuit of Man 458 8 (2.75)  2008-04-18
?A Universe With 1,481 28 (4.14)  2008-04-18
?This Fad Sponsored by.................... 423 3 (3.00)  2008-04-15
?Royaly Screwed 752 11 (4.00)  2008-04-15
?Tora Tora Tora! 888 13 (3.62)  2008-04-14
?Boogie Woogie Bugle Girl of Company C 2,484 86 (4.03)  2008-04-13
?Catastrophy 478 6 (3.17)  2008-04-12
?Parrot Stole My Thumb 479 14 (3.71)  2008-04-12
?Parrot Stole My Thumb 742 16 (3.63)  2008-04-12
?Parrot Stole My Thumb 633 18 (3.83)  2008-04-12
?Parrot Stole My Thumb 645 11 (3.18)  2008-04-12
?Masters of Guitar Hero 1,423 22 (3.55)  2008-04-10
?Scent of a Jedi 2,432 64 (3.91)  2008-04-09
?Reflections of Ourselves 1,032 24 (3.79)  2008-04-06
?Morphine Lips 835 32 (3.69)  2008-04-06
?Balls Can't Lose 1,853 71 (3.79)  2008-04-03
?SMTMND 508 7 (3.71)  2008-04-02
?Irish Lincoln plays a trick on you 598 11 (3.00)  2008-03-31
?This Site Will Self Destruct in 5 Seconds 998 12 (3.25)  2008-03-29
?Asian Stephanie Strikes Back 1,374 16 (3.06)  2008-03-27
?The Site With No Name 983 14 (3.50)  2008-03-16
?Twisted Fables 2,091 33 (3.82)  2008-03-11
?Something wicked this way comes 7,929 236 (4.06)  2008-03-08
?Saddle Sore 1,130 18 (3.56)  2008-03-05
?In theory it sounded good 970 15 (3.40)  2008-03-05
?Where's your mod now! 646 22 (3.45)  2008-03-04
?The Future is Pink 1,324 24 (3.58)  2008-03-02
?Candy Pop 1,054 13 (3.46)  2008-03-01
?Sportaclub Now Open For Business 9,714 319 (4.04)  2008-02-27
?3 Inches of Pink 1,380 24 (3.46)  2008-02-24
?He plays a mean pirate 1,307 16 (3.56)  2008-02-24
?3 inches of road kill 697 14 (3.21)  2008-02-22
?Infinity to the Infinity to the Infinity 472 7 (3.57)  2008-02-22
?It's an Uphill Climb 672 5 (3.00)  2008-02-15
?Now that Valentymnd is over..... 581 9 (3.11)  2008-02-15
?Valentymnd: Deuces Wild 462 12 (2.92)  2008-02-14
?Glow in the Darkness 2,384 112 (3.94)  2008-02-13
?Are we there yet? 806 40 (3.78)  2008-02-09
?A Little Yogurt Never Hurt Anyone 521 6 (3.00)  2008-02-08
?Brown Paper Bag has eyes 597 14 (3.29)  2008-02-08
?He'll make point five past lightspeed 690 12 (3.17)  2008-02-04
?Valentymnd: The eyes have it 874 8 (3.75)  2008-02-02
?What comes around goes around and around and ... 778 13 (3.46)  2008-02-02
?Vader comes out of the dome 532 9 (3.56)  2008-01-26
?Star Wars IV (How Pretty Luke Becomes Ugly Lu... 2,622 28 (3.93)  2008-01-24
?Cinema 3,301 177 (4.01)  2008-01-24
?I won't deny it! My previous site has..... 441 13 (3.31)  2008-01-23
?I won't deny it! This site is gunna.... 1,099 32 (3.81)  2008-01-23
?0° Temperature Buster 1,242 13 (3.62)  2008-01-22
?24 Hours of French Drumming 1,474 51 (3.92)  2008-01-10
?24 Hours of Extra Cruelty 777 8 (3.25)  2008-01-10
?24 Hours Of Daydreams 828 7 (3.43)  2008-01-10
?24 Hours of ¥ Barfolemew 1,222 32 (3.78)  2008-01-09
?24 Hours Of 12 1,282 37 (3.65)  2008-01-09
?24 Hours of Uninhibited Plaidlight 967 23 (4.04)  2008-01-08
?24 Hours of ¥ Plaidlight 2,209 112 (3.85)  2008-01-08
?Seagull 356 6 (3.00)  2008-01-08
?Let's Blow This Town 2,738 17 (3.82)  2008-01-07
?40,000 update 494 8 (4.00)  2008-01-05
?BTape's New Year Message 878 25 (3.72)  2008-01-03
?Girls Can't Fly 2,064 41 (4.05)  2007-12-30
?Bookmark This Page 621 27 (3.59)  2007-12-30
?Leave BTape aloan. 469 20 (3.65)  2007-12-29
?I am BTape's Worm 770 11 (3.45)  2007-12-29
?Panty Raid! 1,220 12 (3.58)  2007-12-22
?You Can't Handle The Truth! 1,408 17 (4.12)  2007-12-20
?(nsfw) Postal Dude > Duke Nukem 1,691 11 (2.91)  2007-12-20
?Postal Dude > Duke Nukem 737 9 (3.11)  2007-12-20
?Postal Dude > Duke Nukem 963 8 (2.75)  2007-12-20
? Lazytown 15th Audition (Search for a new Stepha... 4,917 54 (4.09)  2007-12-19
?Khanduit 929 24 (3.79)  2007-12-18
? Lazytown 14th Audition (Search for a new Stepha... 1,888 35 (3.94)  2007-12-16
?Lazytown 9th Audition (Search for a new Stephanie... 3,798 141 (3.91)  2007-12-15
?Lazytown 7th Audition (Search for a new Stephanie... 1,587 43 (3.84)  2007-12-14
?Lazytown 5th Audition (Search for a new Stephanie... 1,647 40 (3.53)  2007-12-14
?Lazytown 4th Audition (Search for a new Stephanie... 1,897 45 (3.71)  2007-12-14
?Lazytown 3rd Audition (Search for a new Stephani... 1,761 50 (3.70)  2007-12-14
?Robbie Rotten Finds Peace 649 9 (3.56)  2007-12-13
?Lazytown 2nd Audition (Search for a new Stephani... 2,868 53 (3.98)  2007-12-12
?Lazytown Auditions (Search for a new Stephanie) 4,043 68 (3.78)  2007-12-12
?Lazytown Outtakes (rawr footage) 2,742 47 (3.94)  2007-12-11
?Ultimate Showdown 822 22 (3.55)  2007-12-08
?heelEum 1,036 23 (3.74)  2007-12-07
? /\/\/\/\/\/\/\/\/\/\/\/\/\/\/\/\/\/\/\/\/\/\/\/\/\/\/\/\/\/\/\/\/\/\... 16,234 477 (4.14)  2007-12-06
?I stare into your soul! 528 8 (3.25)  2007-12-04
?Even The 360 clock says.............. 327 6 (2.33)  2007-12-03
?Extortion Plot Revealed! 740 20 (3.65)  2007-12-01
?Dancing Balls (It's Happening Now!) 30,316 685 (4.35)  2007-11-30
?Waxing Nostalgia 1,415 16 (3.75)  2007-11-29
?Special Edition YTMND Christmas Cards (get yours... 1,489 49 (3.94)  2007-11-25
?I Am Experienced 1,108 16 (3.69)  2007-11-22
?Now this is just madness I tell you! Madness! 691 10 (2.40)  2007-11-16
? A Wholesome Rave 1,643 29 (3.86)  2007-11-16
?This Week it's all about 963 14 (3.50)  2007-11-15
?Rotten Carrot 1,726 11 (3.73)  2007-11-15
?Sometimes, a carrot is just a carrot (double dutch c... 1,625 34 (3.71)  2007-11-14
?Evil Spirit Alarm! 954 35 (3.66)  2007-11-13
?Sometimes, a carrot is just a carrot 2,227 55 (3.85)  2007-11-11
?Sometimes, happiness is just.......... 994 33 (3.70)  2007-11-11
?UK Live 1,013 25 (3.60)  2007-11-06
?IV XX 1,021 28 (3.50)  2007-11-04
?Alien Abuse™ 1,315 21 (3.67)  2007-11-03
?Super Secret Late Night Message©® 1,079 10 (3.40)  2007-11-02
?Again and Again and Again™ 6,300 167 (3.98)  2007-10-29
?Another Night With Danson 1,026 38 (3.76)  2007-10-28
?A Night With Danson 541 5 (2.60)  2007-10-28
?Feel Like Danson 1,768 106 (3.81)  2007-10-24
?Ghost Town™ 876 16 (3.63)  2007-10-23
?Sith With A Smile ©®™ 6,389 216 (3.94)  2007-10-21
?Can't go home 1,381 23 (3.91)  2007-10-18
?Somewhere out there 1,493 27 (3.78)  2007-10-16
?40 YEARS AGO 1,601 48 (3.67)  2007-10-13
?lovethyconan not lt4 50% more psychedelica 3,598 15 (3.93)  2007-10-12
?Ziggy is on fyre! 796 15 (3.33)  2007-10-11
?ZIGGY!!!! 1,736 65 (3.72)  2007-10-10
?.iceland heaven. 1,395 13 (3.31)  2007-10-10
?One Star's Anthem 691 11 (2.27)  2007-10-09
?Coming out for the Holidays 1,483 39 (3.74)  2007-10-08
?Mosura ya Mosura 1,587 28 (3.71)  2007-10-06
?FEAR CONFERENCE 1,239 28 (3.61)  2007-10-05
?Watchyagunnado now Stephanie 1,781 49 (3.73)  2007-10-04
?What V.S. Who!? (omg! Faints!) 1,606 53 (3.75)  2007-10-02
?Danger Rave 2,396 24 (3.33)  2007-10-02
?Welcome To Dirtytown 971 16 (3.25)  2007-09-30
?PFTMND - Sheep 750 21 (3.62)  2007-09-28
?ChemKneazle, Ace Of Chemistry 808 17 (3.18)  2007-09-27
?This Time Will Come 1,437 23 (3.70)  2007-09-27
?Emerson, Lake and............................... 998 14 (3.43)  2007-09-26
?What if Sportacus was Swiss 1,127 21 (3.24)  2007-09-25
?If you leave now, the Emperor will have already w... 1,112 17 (3.12)  2007-09-24
?Atlas Who? 1,675 16 (3.94)  2007-09-23
?Bring it on Stephanie! Bring it on! 3,832 47 (3.96)  2007-09-22
?Taze Zonday 2,469 47 (3.60)  2007-09-21
?For ChemKneazle and lazytown4 871 14 (3.50)  2007-09-10
?Stephanie, keeps her appearance. 5,343 70 (4.04)  2007-09-08
?Lazytown Hormones Aren't Lazy 2,796 29 (4.03)  2007-09-07
?The Bee Cat 559 19 (2.95)  2007-09-05
?What's Your Sign? 648 7 (3.29)  2007-09-04
?Fallen Bridge or Something Else 1,027 27 (3.48)  2007-08-01
?Interludes After Midnight III 3,856 22 (4.09)  2007-06-25
?Darth Vader Opus 980 14 (3.14)  2007-06-24
?Interludes After Midnight 1,078 19 (3.58)  2007-06-24
?Interludes After Midnight 3,085 118 (3.84)  2007-06-23
?Stephanie, it's okay 3,501 32 (3.66)  2007-06-15
?TheManWithNoFace EDIT 658 13 (3.15)  2007-06-13
?It's Good To Be Back :p 748 18 (3.28)  2007-06-12
?It's Official 1,346 59 (3.53)  2007-06-05
?Juliana and company V. 2 1,337 25 (3.40)  2007-06-04
?Juliana has a message 1,050 14 (3.64)  2007-06-04
?Juliana and company 1,432 22 (3.50)  2007-06-03
?Can't Sleep At Night 1,861 64 (3.77)  2007-06-03
?Kirk and Scotty's Plunder 2,449 19 (3.47)  2007-06-02
?SlitherYtmnd 525 10 (3.00)  2007-06-01
?Running Through My Head 1,381 27 (3.56)  2007-05-31
?Continuum Secrets Revealed 2,505 72 (3.83)  2007-05-28
?Pirates Bay 16,267 327 (3.95)  2007-05-27
?Stephanie Post Cake Day 8,621 62 (4.18)  2007-05-25
?Stephanie's Cake Day 6,816 134 (3.90)  2007-05-25
?Lazytown Prophecy 2,131 38 (3.95)  2007-05-24
?(nsfw) Vote 5 for Blow Job 7,607 168 (3.90)  2007-05-20
?Anatmnd 101 982 9 (3.11)  2007-05-20
?Conscious 743 15 (3.33)  2007-05-18
?The End of Sportacus?! 1,567 27 (3.70)  2007-05-15
?Tubby Skeet 1,556 21 (3.76)  2007-05-13
?Happy Sinko de Mayo 410 10 (3.20)  2007-05-05
?To Infinity and Beyond 936 16 (3.50)  2007-04-28
?Bait and Tackle 550 7 (3.14)  2007-04-24
?The last thing you will ever see 3,207 14 (3.50)  2007-04-18
?[EPIC] Forum Maneuver 10,656 9 (1.44)  2007-04-09
?(nsfw) Down Voters Beware 922 7 (3.29)  2007-04-02
?(nsfw) But I Poop From There Infestation 8,337 40 (3.88)  2007-04-02
?MGM Pictures Presents............ 1,461 13 (3.69)  2007-03-31
?No Laughing Matter (sound Fix) 694 13 (3.00)  2007-03-09
?The Sound Of Inevitability 743 16 (3.19)  2007-03-02
?No Pizza Tonight 733 13 (3.38)  2007-03-01
?Stephanie Ace of Cakes 3,282 24 (3.92)  2007-02-26
?Stephanie Magic 4,592 25 (3.88)  2007-02-24
?Stephanie Teaches 2,886 22 (4.05)  2007-02-24
?LazyTown: Big Bang war 1,883 16 (3.81)  2007-02-23
?LazyTown has lost 3,250 55 (3.75)  2007-02-22
?it's hypnotizing 609 12 (3.50)  2007-02-21
?Is there life on mars? 1,200 21 (3.52)  2007-02-17
?Deckard sees the future 1,578 31 (4.03)  2007-02-16
?Stephanie Lives 8,265 42 (4.19)  2007-02-14
?Little Kid Listens to YTMND 586 6 (3.00)  2007-02-13
?Beakman doesn't change facial expressions 2,234 14 (3.93)  2007-02-13
?*Proof* Anna Nicole Smith is dead 5,363 72 (4.42)  2007-02-10
?catAtonic 987 7 (3.86)  2007-02-09
?Anna Nicole Smith has urned this 1,673 17 (3.53)  2007-02-08
?Smith of Bel-air 472 7 (2.86)  2007-02-08
?Stephanie down under 4,368 19 (3.95)  2007-02-06
?Bowie discovers Stephanie's Underwear 1,752 22 (3.36)  2007-02-05
?Bowie discovers Stephanie 3,753 36 (4.00)  2007-02-05
?Stephanie done broke his heart 1,494 22 (3.86)  2007-02-04
?Sportacus is behind Stephanie because 5,607 32 (3.97)  2007-02-01
?LazyTown sex ed 101 4,419 18 (3.50)  2007-01-30
?YTMND the commercial (fixed) 863 15 (3.33)  2007-01-29
?YTMNDThe Commercial 983 7 (2.71)  2007-01-28
?A New Fad 651 8 (3.00)  2007-01-25
?Tribute: Stephanie Apple Jazzed Evening (redo) 2,587 20 (3.85)  2007-01-24
?Tribute: Stephanie Apple Jazzed Evening 1,186 12 (3.08)  2007-01-24
?Secret Nazi Cubicle Circa '84 615 11 (3.00)  2007-01-23
?Professionalism 590 6 (3.00)  2007-01-19
?Stephanie R.I.P. 1,060 12 (2.67)  2007-01-18
?House Has But One Lust 1,577 16 (3.44)  2007-01-15
?Exotic Dancers 583 11 (2.91)  2006-12-06
?(nsfw) Lazytown Up and Coming 1,925 9 (2.56)  2006-12-05
?A Good Place For Downvoters 612 11 (3.09)  2006-11-06
?Is anyone really ready for the 80's 860 19 (3.58)  2006-10-23
?Divorce a Hawking 806 11 (3.00)  2006-10-20
?You are not anonymous 963 14 (3.21)  2006-10-19
?iPod Has One Weakness 2,573 21 (2.81)  2006-10-19
?Downvoters have one weapon 773 25 (2.96)  2006-10-08
?Sit on her face. I dare ya. 2,631 21 (4.00)  2006-10-07
?They're Everywhere 813 20 (3.80)  2006-10-04
?Just a bit 'o fun 593 4 (2.50)  2006-09-30
?Earth Has A New Threat 982 26 (3.38)  2006-09-29
?You Touch My Tralala - Soccer Version 1,083 13 (3.08)  2006-09-23
?History of YTMND 632 13 (2.31)  2006-09-18
?She's got a nice pair 671 13 (3.46)  2006-09-18
?I'm So Hungry I could........... 5,008 110 (3.60)  2006-09-16
?Brian Peppers Sept 26th 1/2 2,435 18 (3.44)  2006-09-15
?PenisPai 897 28 (3.36)  2006-09-09
?Downvoters Revealed 805 21 (3.19)  2006-09-09
?Ultimate Horror Part 2 992 28 (3.64)  2006-09-08
?Hitler Reborn 749 17 (2.94)  2006-09-06
?Steve Irwin Rocks 974 23 (2.35)  2006-09-05
?Hasselhoff: ualuealuealeuala 4,998 62 (3.61)  2006-08-28